createdAt,value
2023-04-15T00:00:07.832Z,55.40
2023-04-15T00:01:07.864Z,55.06
2023-04-15T00:02:07.953Z,55.31
2023-04-15T00:03:07.880Z,55.25
2023-04-15T00:04:07.880Z,55.23
2023-04-15T00:05:07.882Z,56.28
2023-04-15T00:06:07.827Z,56.18
2023-04-15T00:07:07.792Z,55.63
2023-04-15T00:08:07.823Z,55.26
2023-04-15T00:09:07.860Z,55.16
2023-04-15T00:10:07.988Z,55.19
2023-04-15T00:11:08.042Z,55.26
2023-04-15T00:12:08.048Z,55.31
2023-04-15T00:13:08.084Z,55.67
2023-04-15T00:14:08.105Z,55.94
2023-04-15T00:15:08.513Z,55.61
2023-04-15T00:16:08.251Z,56.10
2023-04-15T00:17:08.281Z,56.16
2023-04-15T00:18:08.397Z,56.41
2023-04-15T00:19:08.579Z,56.75
2023-04-15T00:20:08.372Z,56.49
2023-04-15T00:21:08.404Z,56.34
2023-04-15T00:22:08.472Z,57.21
2023-04-15T00:23:08.518Z,57.08
2023-04-15T00:24:08.595Z,56.65
2023-04-15T00:25:08.638Z,56.67
2023-04-15T00:26:08.702Z,56.48
2023-04-15T00:27:08.715Z,56.04
2023-04-15T00:28:08.778Z,55.98
2023-04-15T00:29:08.830Z,55.55
2023-04-15T00:30:08.872Z,55.27
2023-04-15T00:31:08.949Z,54.97
2023-04-15T00:32:08.952Z,54.76
2023-04-15T00:33:09.005Z,54.28
2023-04-15T00:34:09.011Z,54.04
2023-04-15T00:35:09.010Z,53.95
2023-04-15T00:36:09.024Z,53.89
2023-04-15T00:37:09.048Z,53.78
2023-04-15T00:38:09.135Z,53.90
2023-04-15T00:39:09.252Z,54.56
2023-04-15T00:40:09.372Z,55.02
2023-04-15T00:41:09.471Z,55.74
2023-04-15T00:42:09.566Z,56.19
2023-04-15T00:43:09.654Z,56.56
2023-04-15T00:44:09.710Z,56.77
2023-04-15T00:45:09.809Z,57.24
2023-04-15T00:46:09.928Z,57.08
2023-04-15T00:47:09.921Z,56.72
2023-04-15T00:48:09.969Z,56.56
2023-04-15T00:49:10.031Z,56.71
2023-04-15T00:50:10.097Z,56.95
2023-04-15T00:51:10.193Z,56.64
2023-04-15T00:52:10.207Z,56.59
2023-04-15T00:53:10.268Z,56.41
2023-04-15T00:54:10.340Z,56.63
2023-04-15T00:55:10.325Z,56.85
2023-04-15T00:56:10.407Z,56.75
2023-04-15T00:57:10.497Z,57.34
2023-04-15T00:58:10.503Z,57.43
2023-04-15T00:59:10.552Z,57.40
2023-04-15T01:00:10.626Z,57.45
2023-04-15T01:01:10.785Z,58.10
2023-04-15T01:02:10.809Z,57.94
2023-04-15T01:03:10.993Z,58.18
2023-04-15T01:04:11.015Z,58.31
2023-04-15T01:05:10.913Z,57.87
2023-04-15T01:06:11.067Z,58.18
2023-04-15T01:07:11.094Z,58.06
2023-04-15T01:08:11.102Z,57.66
2023-04-15T01:09:11.168Z,57.83
2023-04-15T01:10:11.224Z,57.81
2023-04-15T01:11:11.244Z,57.48
2023-04-15T01:12:11.347Z,57.15
2023-04-15T01:13:11.327Z,57.36
2023-04-15T01:14:11.436Z,57.09
2023-04-15T01:15:11.457Z,57.59
2023-04-15T01:16:11.521Z,58.04
2023-04-15T01:17:11.562Z,57.91
2023-04-15T01:18:11.587Z,57.93
2023-04-15T01:19:11.608Z,57.86
2023-04-15T01:20:11.704Z,58.65
2023-04-15T01:21:11.770Z,58.04
2023-04-15T01:22:11.801Z,58.34
2023-04-15T01:23:11.763Z,57.96
2023-04-15T01:24:12.161Z,57.67
2023-04-15T01:25:11.929Z,57.36
2023-04-15T01:26:12.016Z,56.99
2023-04-15T01:27:12.038Z,56.97
2023-04-15T01:28:12.069Z,56.95
2023-04-15T01:29:12.128Z,56.69
2023-04-15T01:30:12.174Z,56.19
2023-04-15T01:31:12.372Z,56.59
2023-04-15T01:32:12.288Z,57.01
2023-04-15T01:33:12.321Z,56.82
2023-04-15T01:34:12.372Z,57.65
2023-04-15T01:35:12.399Z,57.44
2023-04-15T01:36:12.517Z,57.14
2023-04-15T01:37:12.517Z,56.87
2023-04-15T01:38:12.557Z,56.92
2023-04-15T01:39:12.612Z,57.05
2023-04-15T01:40:12.656Z,56.95
2023-04-15T01:41:12.684Z,56.47
2023-04-15T01:42:12.677Z,56.17
2023-04-15T01:43:12.760Z,56.06
2023-04-15T01:44:12.860Z,55.82
2023-04-15T01:45:12.867Z,55.39
2023-04-15T01:46:12.914Z,55.11
2023-04-15T01:47:12.907Z,55.11
2023-04-15T01:48:13.191Z,54.99
2023-04-15T01:49:12.918Z,54.79
2023-04-15T01:50:12.937Z,54.78
2023-04-15T01:51:12.948Z,55.25
2023-04-15T01:52:12.924Z,55.52
2023-04-15T01:53:13.043Z,55.73
2023-04-15T01:54:13.088Z,56.19
2023-04-15T01:55:13.122Z,56.58
2023-04-15T01:56:14.763Z,56.13
2023-04-15T01:57:13.203Z,55.81
2023-04-15T01:58:13.188Z,55.61
2023-04-15T01:59:13.187Z,54.97
2023-04-15T02:00:13.154Z,55.14
2023-04-15T02:01:13.179Z,55.13
2023-04-15T02:02:13.149Z,54.86
2023-04-15T02:03:13.217Z,54.55
2023-04-15T02:04:13.133Z,54.48
2023-04-15T02:05:13.120Z,54.61
2023-04-15T02:06:13.153Z,54.77
2023-04-15T02:07:13.085Z,54.57
2023-04-15T02:08:13.091Z,54.76
2023-04-15T02:09:13.143Z,55.06
2023-04-15T02:10:13.101Z,55.54
2023-04-15T02:11:13.091Z,55.49
2023-04-15T02:12:13.085Z,55.67
2023-04-15T02:13:13.093Z,55.59
2023-04-15T02:14:13.050Z,55.15
2023-04-15T02:15:13.087Z,54.87
2023-04-15T02:16:13.092Z,54.52
2023-04-15T02:17:13.075Z,54.34
2023-04-15T02:18:13.036Z,54.30
2023-04-15T02:19:13.026Z,53.96
2023-04-15T02:20:13.056Z,54.25
2023-04-15T02:21:13.048Z,53.94
2023-04-15T02:22:13.001Z,53.92
2023-04-15T02:23:13.056Z,54.17
2023-04-15T02:24:12.986Z,54.78
2023-04-15T02:25:12.976Z,55.06
2023-04-15T02:26:13.015Z,55.37
2023-04-15T02:27:12.989Z,56.15
2023-04-15T02:28:12.993Z,55.68
2023-04-15T02:29:13.005Z,55.72
2023-04-15T02:30:12.963Z,55.65
2023-04-15T02:31:12.997Z,55.44
2023-04-15T02:32:13.161Z,55.01
2023-04-15T02:33:12.951Z,54.83
2023-04-15T02:34:12.961Z,54.86
2023-04-15T02:35:12.971Z,54.73
2023-04-15T02:36:12.938Z,54.59
2023-04-15T02:37:12.935Z,54.30
2023-04-15T02:38:12.908Z,54.12
2023-04-15T02:39:12.994Z,53.98
2023-04-15T02:40:13.011Z,54.06
2023-04-15T02:41:13.092Z,54.42
2023-04-15T02:42:13.109Z,54.56
2023-04-15T02:43:13.180Z,54.53
2023-04-15T02:44:13.172Z,54.84
2023-04-15T02:45:13.270Z,54.89
2023-04-15T02:46:13.360Z,55.21
2023-04-15T02:47:13.321Z,54.91
2023-04-15T02:48:13.367Z,54.77
2023-04-15T02:49:13.427Z,54.73
2023-04-15T02:50:13.467Z,54.49
2023-04-15T02:51:13.606Z,54.27
2023-04-15T02:52:13.569Z,54.32
2023-04-15T02:53:13.634Z,54.34
2023-04-15T02:54:13.685Z,54.36
2023-04-15T02:55:13.745Z,54.38
2023-04-15T02:56:13.802Z,54.52
2023-04-15T02:57:13.830Z,54.65
2023-04-15T02:58:13.933Z,55.01
2023-04-15T02:59:13.866Z,55.19
2023-04-15T03:00:13.875Z,54.75
2023-04-15T03:01:13.991Z,54.72
2023-04-15T03:02:14.047Z,54.64
2023-04-15T03:03:14.218Z,54.86
2023-04-15T03:04:14.067Z,55.01
2023-04-15T03:05:14.084Z,54.85
2023-04-15T03:06:14.142Z,54.88
2023-04-15T03:07:14.192Z,54.78
2023-04-15T03:08:14.204Z,54.80
2023-04-15T03:09:14.301Z,54.42
2023-04-15T03:10:14.318Z,54.58
2023-04-15T03:11:14.372Z,54.62
2023-04-15T03:12:14.429Z,54.44
2023-04-15T03:13:14.529Z,54.27
2023-04-15T03:14:14.549Z,54.36
2023-04-15T03:15:14.567Z,54.21
2023-04-15T03:16:14.746Z,54.31
2023-04-15T03:17:14.724Z,54.03
2023-04-15T03:18:14.728Z,54.14
2023-04-15T03:19:14.789Z,54.28
2023-04-15T03:20:14.915Z,54.30
2023-04-15T03:21:14.928Z,54.17
2023-04-15T03:22:14.974Z,53.97
2023-04-15T03:23:15.040Z,53.97
2023-04-15T03:24:15.129Z,54.00
2023-04-15T03:25:15.123Z,53.91
2023-04-15T03:26:15.200Z,53.91
2023-04-15T03:27:15.201Z,53.87
2023-04-15T03:28:15.294Z,53.92
2023-04-15T03:29:15.313Z,54.14
2023-04-15T03:30:15.390Z,54.35
2023-04-15T03:31:15.598Z,54.51
2023-04-15T03:32:15.551Z,54.68
2023-04-15T03:33:15.630Z,54.81
2023-04-15T03:34:15.653Z,54.71
2023-04-15T03:35:15.689Z,55.22
2023-04-15T03:36:15.788Z,55.37
2023-04-15T03:37:15.820Z,56.17
2023-04-15T03:38:15.870Z,55.94
2023-04-15T03:39:15.892Z,55.46
2023-04-15T03:40:15.986Z,55.60
2023-04-15T03:41:16.007Z,55.45
2023-04-15T03:42:16.025Z,55.27
2023-04-15T03:43:16.035Z,55.06
2023-04-15T03:44:16.090Z,55.01
2023-04-15T03:45:16.150Z,54.89
2023-04-15T03:46:16.180Z,54.81
2023-04-15T03:47:16.185Z,54.86
2023-04-15T03:48:18.178Z,54.73
2023-04-15T03:49:16.261Z,54.52
2023-04-15T03:50:16.303Z,54.05
2023-04-15T03:51:16.373Z,53.95
2023-04-15T03:52:16.403Z,53.82
2023-04-15T03:53:16.407Z,53.69
2023-04-15T03:54:16.393Z,53.75
2023-04-15T03:55:16.433Z,53.78
2023-04-15T03:56:16.535Z,54.06
2023-04-15T03:57:16.554Z,54.41
2023-04-15T03:58:16.581Z,54.27
2023-04-15T03:59:16.620Z,54.32
2023-04-15T04:00:16.701Z,54.16
2023-04-15T04:01:16.773Z,53.88
2023-04-15T04:02:16.812Z,53.96
2023-04-15T04:03:16.860Z,54.34
2023-04-15T04:04:16.935Z,55.12
2023-04-15T04:05:16.813Z,55.36
2023-04-15T04:06:16.930Z,55.26
2023-04-15T04:07:16.910Z,55.20
2023-04-15T04:08:16.915Z,54.95
2023-04-15T04:09:16.901Z,54.84
2023-04-15T04:10:16.921Z,54.85
2023-04-15T04:11:16.941Z,55.03
2023-04-15T04:12:17.016Z,54.75
2023-04-15T04:13:16.959Z,54.46
2023-04-15T04:14:16.951Z,54.29
2023-04-15T04:15:16.968Z,54.39
2023-04-15T04:16:17.033Z,54.23
2023-04-15T04:17:17.047Z,54.15
2023-04-15T04:18:17.043Z,54.26
2023-04-15T04:19:17.064Z,54.22
2023-04-15T04:20:17.069Z,54.18
2023-04-15T04:21:17.161Z,54.24
2023-04-15T04:22:17.101Z,53.97
2023-04-15T04:23:17.135Z,53.59
2023-04-15T04:24:17.116Z,53.12
2023-04-15T04:25:17.147Z,52.99
2023-04-15T04:26:17.189Z,52.73
2023-04-15T04:27:17.203Z,53.35
2023-04-15T04:28:17.295Z,53.37
2023-04-15T04:29:17.324Z,53.05
2023-04-15T04:30:17.425Z,53.20
2023-04-15T04:31:17.490Z,53.00
2023-04-15T04:32:17.477Z,53.16
2023-04-15T04:33:17.551Z,53.16
2023-04-15T04:34:17.629Z,53.12
2023-04-15T04:35:17.657Z,52.75
2023-04-15T04:36:17.730Z,52.45
2023-04-15T04:37:17.739Z,51.49
2023-04-15T04:38:17.830Z,51.30
2023-04-15T04:39:17.835Z,51.30
2023-04-15T04:40:17.867Z,51.26
2023-04-15T04:41:17.967Z,51.00
2023-04-15T04:42:17.968Z,51.11
2023-04-15T04:43:18.039Z,51.26
2023-04-15T04:44:18.065Z,51.34
2023-04-15T04:45:18.094Z,51.89
2023-04-15T04:46:18.218Z,51.76
2023-04-15T04:47:18.205Z,51.77
2023-04-15T04:48:18.294Z,51.80
2023-04-15T04:49:18.346Z,52.03
2023-04-15T04:50:18.406Z,51.84
2023-04-15T04:51:18.431Z,51.70
2023-04-15T04:52:18.443Z,52.24
2023-04-15T04:53:18.586Z,52.55
2023-04-15T04:54:18.671Z,52.64
2023-04-15T04:55:18.662Z,52.56
2023-04-15T04:56:18.733Z,52.86
2023-04-15T04:57:18.731Z,53.74
2023-04-15T04:58:18.777Z,54.14
2023-04-15T04:59:19.491Z,54.84
2023-04-15T05:00:18.814Z,54.99
2023-04-15T05:01:18.874Z,54.87
2023-04-15T05:02:18.963Z,54.55
2023-04-15T05:03:19.067Z,55.12
2023-04-15T05:04:19.099Z,54.53
2023-04-15T05:05:18.865Z,54.06
2023-04-15T05:06:18.908Z,53.82
2023-04-15T05:07:18.921Z,53.59
2023-04-15T05:08:18.963Z,53.27
2023-04-15T05:09:19.002Z,53.12
2023-04-15T05:10:18.973Z,53.03
2023-04-15T05:11:18.980Z,52.89
2023-04-15T05:12:18.992Z,52.63
2023-04-15T05:13:18.993Z,52.49
2023-04-15T05:14:19.069Z,51.72
2023-04-15T05:15:19.048Z,51.79
2023-04-15T05:16:19.154Z,51.64
2023-04-15T05:17:19.048Z,51.56
2023-04-15T05:18:19.038Z,51.59
2023-04-15T05:19:19.143Z,51.74
2023-04-15T05:20:19.162Z,51.55
2023-04-15T05:21:19.218Z,51.06
2023-04-15T05:22:19.259Z,51.11
2023-04-15T05:23:19.243Z,51.50
2023-04-15T05:24:19.255Z,51.50
2023-04-15T05:25:19.278Z,51.49
2023-04-15T05:26:19.291Z,51.47
2023-04-15T05:27:19.298Z,51.61
2023-04-15T05:28:19.299Z,51.46
2023-04-15T05:29:19.317Z,51.31
2023-04-15T05:30:19.341Z,51.20
2023-04-15T05:31:19.440Z,51.20
2023-04-15T05:32:19.396Z,51.23
2023-04-15T05:33:19.396Z,51.15
2023-04-15T05:34:19.358Z,51.13
2023-04-15T05:35:19.359Z,51.21
2023-04-15T05:36:19.375Z,51.22
2023-04-15T05:37:19.341Z,51.05
2023-04-15T05:38:19.398Z,50.92
2023-04-15T05:39:19.410Z,50.89
2023-04-15T05:40:19.444Z,51.06
2023-04-15T05:41:19.990Z,51.67
2023-04-15T05:42:19.444Z,51.65
2023-04-15T05:43:19.482Z,52.20
2023-04-15T05:44:19.487Z,52.16
2023-04-15T05:45:19.550Z,51.77
2023-04-15T05:46:19.706Z,51.90
2023-04-15T05:47:19.702Z,52.09
2023-04-15T05:48:19.769Z,51.61
2023-04-15T05:49:19.801Z,51.99
2023-04-15T05:50:19.870Z,51.26
2023-04-15T05:51:19.943Z,51.08
2023-04-15T05:52:19.959Z,50.69
2023-04-15T05:53:20.056Z,50.53
2023-04-15T05:54:20.347Z,48.71
2023-04-15T05:55:20.163Z,47.60
2023-04-15T05:56:20.227Z,47.44
2023-04-15T05:57:20.229Z,47.16
2023-04-15T05:58:20.275Z,47.40
2023-04-15T05:59:20.322Z,46.77
2023-04-15T06:00:20.373Z,46.86
2023-04-15T06:01:20.438Z,46.68
2023-04-15T06:02:20.651Z,46.94
2023-04-15T06:03:20.607Z,46.68
2023-04-15T06:04:20.633Z,45.81
2023-04-15T06:05:20.639Z,45.70
2023-04-15T06:06:20.692Z,45.23
2023-04-15T06:07:20.712Z,45.34
2023-04-15T06:08:20.730Z,45.54
2023-04-15T06:09:20.760Z,45.30
2023-04-15T06:10:20.808Z,44.95
2023-04-15T06:11:20.909Z,45.50
2023-04-15T06:12:20.849Z,45.40
2023-04-15T06:13:20.921Z,45.41
2023-04-15T06:14:20.903Z,45.34
2023-04-15T06:15:20.967Z,45.01
2023-04-15T06:16:21.023Z,44.33
2023-04-15T06:17:21.048Z,44.89
2023-04-15T06:18:21.038Z,43.98
2023-04-15T06:19:21.105Z,43.57
2023-04-15T06:20:21.048Z,43.91
2023-04-15T06:21:21.109Z,44.44
2023-04-15T06:22:21.056Z,42.93
2023-04-15T06:23:21.043Z,42.75
2023-04-15T06:24:21.063Z,43.55
2023-04-15T06:25:21.040Z,43.31
2023-04-15T06:26:21.064Z,41.79
2023-04-15T06:27:21.055Z,41.26
2023-04-15T06:28:21.081Z,41.80
2023-04-15T06:29:21.029Z,42.37
2023-04-15T06:30:22.937Z,42.88
2023-04-15T06:31:21.057Z,42.20
2023-04-15T06:32:21.054Z,42.19
2023-04-15T06:33:21.208Z,41.52
2023-04-15T06:34:20.981Z,41.16
2023-04-15T06:35:20.966Z,40.71
2023-04-15T06:36:21.001Z,40.89
2023-04-15T06:37:20.944Z,40.86
2023-04-15T06:38:20.993Z,40.68
2023-04-15T06:39:20.958Z,40.35
2023-04-15T06:40:20.959Z,39.59
2023-04-15T06:41:20.961Z,39.07
2023-04-15T06:42:20.976Z,39.50
2023-04-15T06:43:20.997Z,39.88
2023-04-15T06:44:20.914Z,39.72
2023-04-15T06:45:20.893Z,38.97
2023-04-15T06:46:21.370Z,38.06
2023-04-15T06:47:20.899Z,38.51
2023-04-15T06:48:20.900Z,37.84
2023-04-15T06:49:20.875Z,37.98
2023-04-15T06:50:20.885Z,38.16
2023-04-15T06:51:20.878Z,38.40
2023-04-15T06:52:20.879Z,38.62
2023-04-15T06:53:20.857Z,38.70
2023-04-15T06:54:20.836Z,38.53
2023-04-15T06:55:20.833Z,39.30
2023-04-15T06:56:20.872Z,39.42
2023-04-15T06:57:20.880Z,39.46
2023-04-15T06:58:20.897Z,39.29
2023-04-15T06:59:20.804Z,38.41
2023-04-15T07:00:20.807Z,38.46
2023-04-15T07:01:21.657Z,38.53
2023-04-15T07:02:20.860Z,38.00
2023-04-15T07:03:20.771Z,39.03
2023-04-15T07:04:20.869Z,39.31
2023-04-15T07:05:20.777Z,39.60
2023-04-15T07:06:20.800Z,39.69
2023-04-15T07:07:20.760Z,39.96
2023-04-15T07:08:20.847Z,39.76
2023-04-15T07:09:20.702Z,40.02
2023-04-15T07:10:20.762Z,40.45
2023-04-15T07:11:20.727Z,40.51
2023-04-15T07:12:20.730Z,40.82
2023-04-15T07:13:20.688Z,39.92
2023-04-15T07:14:20.708Z,40.05
2023-04-15T07:15:20.732Z,39.90
2023-04-15T07:16:20.834Z,39.48
2023-04-15T07:17:20.695Z,39.97
2023-04-15T07:18:20.673Z,39.29
2023-04-15T07:19:20.667Z,38.79
2023-04-15T07:20:20.694Z,39.98
2023-04-15T07:21:20.706Z,40.00
2023-04-15T07:22:20.666Z,40.04
2023-04-15T07:23:20.762Z,39.46
2023-04-15T07:24:20.599Z,38.87
2023-04-15T07:25:20.635Z,38.66
2023-04-15T07:26:20.652Z,38.15
2023-04-15T07:27:20.604Z,38.21
2023-04-15T07:28:20.607Z,37.99
2023-04-15T07:29:20.594Z,37.86
2023-04-15T07:30:20.666Z,37.37
2023-04-15T07:31:20.718Z,38.15
2023-04-15T07:32:20.726Z,37.88
2023-04-15T07:33:20.687Z,37.90
2023-04-15T07:34:20.686Z,37.39
2023-04-15T07:35:20.703Z,37.26
2023-04-15T07:36:20.712Z,37.11
2023-04-15T07:37:20.874Z,36.81
2023-04-15T07:38:20.761Z,36.59
2023-04-15T07:39:20.773Z,36.59
2023-04-15T07:40:20.837Z,36.15
2023-04-15T07:41:20.888Z,36.47
2023-04-15T07:42:21.911Z,37.57
2023-04-15T07:43:21.019Z,37.44
2023-04-15T07:44:21.257Z,38.12
2023-04-15T07:45:21.091Z,37.07
2023-04-15T07:46:21.229Z,38.36
2023-04-15T07:47:21.172Z,37.56
2023-04-15T07:48:21.222Z,37.95
2023-04-15T07:49:21.322Z,37.63
2023-04-15T07:50:21.340Z,37.39
2023-04-15T07:51:21.373Z,36.88
2023-04-15T07:52:21.385Z,36.94
2023-04-15T07:53:21.393Z,36.46
2023-04-15T07:54:21.382Z,36.75
2023-04-15T07:55:21.450Z,37.30
2023-04-15T07:56:21.467Z,36.67
2023-04-15T07:57:21.478Z,36.64
2023-04-15T07:58:21.482Z,36.53
2023-04-15T07:59:21.574Z,36.58
2023-04-15T08:00:21.590Z,36.50
2023-04-15T08:01:21.622Z,36.49
2023-04-15T08:02:21.794Z,36.39
2023-04-15T08:03:21.728Z,36.27
2023-04-15T08:04:21.935Z,36.37
2023-04-15T08:05:21.807Z,36.49
2023-04-15T08:06:21.859Z,36.34
2023-04-15T08:07:21.942Z,35.59
2023-04-15T08:08:21.898Z,35.69
2023-04-15T08:09:21.970Z,35.80
2023-04-15T08:10:22.019Z,35.92
2023-04-15T08:11:22.019Z,35.95
2023-04-15T08:12:22.062Z,36.94
2023-04-15T08:13:22.034Z,37.00
2023-04-15T08:14:22.062Z,36.37
2023-04-15T08:15:22.093Z,36.22
2023-04-15T08:16:22.169Z,36.81
2023-04-15T08:17:22.172Z,36.68
2023-04-15T08:18:22.181Z,37.28
2023-04-15T08:19:22.192Z,37.39
2023-04-15T08:20:22.253Z,37.48
2023-04-15T08:21:22.276Z,37.44
2023-04-15T08:22:22.453Z,37.37
2023-04-15T08:23:22.314Z,38.08
2023-04-15T08:24:22.391Z,36.68
2023-04-15T08:25:22.443Z,36.86
2023-04-15T08:26:22.501Z,39.48
2023-04-15T08:27:22.497Z,40.11
2023-04-15T08:28:22.538Z,39.07
2023-04-15T08:29:22.566Z,38.60
2023-04-15T08:30:22.629Z,41.29
2023-04-15T08:31:22.733Z,41.22
2023-04-15T08:32:22.770Z,41.73
2023-04-15T08:33:22.665Z,41.41
2023-04-15T08:34:22.694Z,40.93
2023-04-15T08:35:22.717Z,40.78
2023-04-15T08:36:22.685Z,40.61
2023-04-15T08:37:22.683Z,40.36
2023-04-15T08:38:22.678Z,40.18
2023-04-15T08:39:22.698Z,39.98
2023-04-15T08:40:22.701Z,39.94
2023-04-15T08:41:22.724Z,39.74
2023-04-15T08:42:22.702Z,39.43
2023-04-15T08:43:22.710Z,39.15
2023-04-15T08:44:22.729Z,38.79
2023-04-15T08:45:22.743Z,38.49
2023-04-15T08:46:22.836Z,37.90
2023-04-15T08:47:22.894Z,37.73
2023-04-15T08:48:22.825Z,36.43
2023-04-15T08:49:22.861Z,36.25
2023-04-15T08:50:22.909Z,35.39
2023-04-15T08:51:24.560Z,35.87
2023-04-15T08:52:23.648Z,36.60
2023-04-15T08:53:23.018Z,36.80
2023-04-15T08:54:22.995Z,36.05
2023-04-15T08:55:22.957Z,36.13
2023-04-15T08:56:22.939Z,36.14
2023-04-15T08:57:22.956Z,36.49
2023-04-15T08:58:22.983Z,36.36
2023-04-15T08:59:23.004Z,36.28
2023-04-15T09:00:23.047Z,36.14
2023-04-15T09:01:23.171Z,35.89
2023-04-15T09:02:23.217Z,36.09
2023-04-15T09:03:23.274Z,36.27
2023-04-15T09:04:23.284Z,37.16
2023-04-15T09:05:24.059Z,36.23
2023-04-15T09:06:23.322Z,35.93
2023-04-15T09:07:23.335Z,35.87
2023-04-15T09:08:23.505Z,36.13
2023-04-15T09:09:23.324Z,36.36
2023-04-15T09:10:23.303Z,36.25
2023-04-15T09:11:23.325Z,37.64
2023-04-15T09:12:23.336Z,37.79
2023-04-15T09:13:23.245Z,37.55
2023-04-15T09:14:23.251Z,37.82
2023-04-15T09:15:23.265Z,38.28
2023-04-15T09:16:23.283Z,39.14
2023-04-15T09:17:23.286Z,38.51
2023-04-15T09:18:23.323Z,37.79
2023-04-15T09:19:23.246Z,37.25
2023-04-15T09:20:23.229Z,37.27
2023-04-15T09:21:23.203Z,35.80
2023-04-15T09:22:23.270Z,35.17
2023-04-15T09:23:23.290Z,35.25
2023-04-15T09:24:23.315Z,34.75
2023-04-15T09:25:23.283Z,34.56
2023-04-15T09:26:23.385Z,35.22
2023-04-15T09:27:23.348Z,34.75
2023-04-15T09:28:23.448Z,35.16
2023-04-15T09:29:23.437Z,34.97
2023-04-15T09:30:23.440Z,34.46
2023-04-15T09:31:23.535Z,34.17
2023-04-15T09:32:23.592Z,34.00
2023-04-15T09:33:23.521Z,33.51
2023-04-15T09:34:23.555Z,34.15
2023-04-15T09:35:23.537Z,34.31
2023-04-15T09:36:23.552Z,33.62
2023-04-15T09:37:32.086Z,33.60
2023-04-15T09:38:24.608Z,33.80
2023-04-15T09:39:23.593Z,33.57
2023-04-15T09:40:23.541Z,33.92
2023-04-15T09:41:23.561Z,34.44
2023-04-15T09:42:23.551Z,34.22
2023-04-15T09:43:23.545Z,34.68
2023-04-15T09:44:23.509Z,34.35
2023-04-15T09:45:24.520Z,33.67
2023-04-15T09:46:23.595Z,32.46
2023-04-15T09:47:23.506Z,32.96
2023-04-15T09:48:23.479Z,33.93
2023-04-15T09:49:23.495Z,33.98
2023-04-15T09:50:23.452Z,34.53
2023-04-15T09:51:23.551Z,34.56
2023-04-15T09:52:23.576Z,33.62
2023-04-15T09:53:23.576Z,33.07
2023-04-15T09:54:23.597Z,33.85
2023-04-15T09:55:23.663Z,35.64
2023-04-15T09:56:23.724Z,36.17
2023-04-15T09:57:23.710Z,36.10
2023-04-15T09:58:23.679Z,35.41
2023-04-15T09:59:23.669Z,35.44
2023-04-15T10:00:23.728Z,36.24
2023-04-15T10:01:23.825Z,35.53
2023-04-15T10:02:23.931Z,35.62
2023-04-15T10:03:24.059Z,35.73
2023-04-15T10:04:23.930Z,35.96
2023-04-15T10:05:23.837Z,35.97
2023-04-15T10:06:23.826Z,36.11
2023-04-15T10:07:23.895Z,36.58
2023-04-15T10:08:23.971Z,36.60
2023-04-15T10:09:23.946Z,36.59
2023-04-15T10:10:23.955Z,36.95
2023-04-15T10:11:24.049Z,36.92
2023-04-15T10:12:24.118Z,37.54
2023-04-15T10:13:24.143Z,37.12
2023-04-15T10:14:24.151Z,37.31
2023-04-15T10:15:24.093Z,36.50
2023-04-15T10:16:24.174Z,36.18
2023-04-15T10:17:24.239Z,35.54
2023-04-15T10:18:24.255Z,35.13
2023-04-15T10:19:24.290Z,35.07
2023-04-15T10:20:24.285Z,35.11
2023-04-15T10:21:24.305Z,34.95
2023-04-15T10:22:24.328Z,34.41
2023-04-15T10:23:24.329Z,33.95
2023-04-15T10:24:24.318Z,33.73
2023-04-15T10:25:24.341Z,33.38
2023-04-15T10:26:24.414Z,33.34
2023-04-15T10:27:24.465Z,33.18
2023-04-15T10:28:24.447Z,33.97
2023-04-15T10:29:24.452Z,34.16
2023-04-15T10:30:24.517Z,34.35
2023-04-15T10:31:24.555Z,33.97
2023-04-15T10:32:24.627Z,33.59
2023-04-15T10:33:24.567Z,33.26
2023-04-15T10:34:24.644Z,32.27
2023-04-15T10:35:24.643Z,31.78
2023-04-15T10:36:24.679Z,31.51
2023-04-15T10:37:24.780Z,31.65
2023-04-15T10:38:24.714Z,31.23
2023-04-15T10:39:24.742Z,31.23
2023-04-15T10:40:24.770Z,31.78
2023-04-15T10:41:24.853Z,31.88
2023-04-15T10:42:24.892Z,32.65
2023-04-15T10:43:24.855Z,32.41
2023-04-15T10:44:24.908Z,32.99
2023-04-15T10:45:24.900Z,33.44
2023-04-15T10:46:25.035Z,32.69
2023-04-15T10:47:25.086Z,32.87
2023-04-15T10:48:25.086Z,32.31
2023-04-15T10:49:25.117Z,31.73
2023-04-15T10:50:25.160Z,31.83
2023-04-15T10:51:25.162Z,31.94
2023-04-15T10:52:25.271Z,31.69
2023-04-15T10:53:25.232Z,31.49
2023-04-15T10:54:25.315Z,31.39
2023-04-15T10:55:25.316Z,31.30
2023-04-15T10:56:25.385Z,31.48
2023-04-15T10:57:25.475Z,30.81
2023-04-15T10:58:25.489Z,31.15
2023-04-15T10:59:25.532Z,30.76
2023-04-15T11:00:25.655Z,30.82
2023-04-15T11:01:25.644Z,30.88
2023-04-15T11:02:26.397Z,30.83
2023-04-15T11:03:25.746Z,30.42
2023-04-15T11:04:27.024Z,30.70
2023-04-15T11:05:25.782Z,30.83
2023-04-15T11:06:25.828Z,31.48
2023-04-15T11:07:25.837Z,31.77
2023-04-15T11:08:25.836Z,31.73
2023-04-15T11:09:25.882Z,31.75
2023-04-15T11:10:26.005Z,32.00
2023-04-15T11:11:25.982Z,31.48
2023-04-15T11:12:25.985Z,31.38
2023-04-15T11:13:25.932Z,29.76
2023-04-15T11:14:26.087Z,29.73
2023-04-15T11:15:26.018Z,29.63
2023-04-15T11:16:26.155Z,29.58
2023-04-15T11:17:26.136Z,29.34
2023-04-15T11:18:26.126Z,29.49
2023-04-15T11:19:26.207Z,30.09
2023-04-15T11:20:26.235Z,30.48
2023-04-15T11:21:26.286Z,30.46
2023-04-15T11:22:26.301Z,31.08
2023-04-15T11:23:26.269Z,29.83
2023-04-15T11:24:26.309Z,29.49
2023-04-15T11:25:26.366Z,29.25
2023-04-15T11:26:26.425Z,29.56
2023-04-15T11:27:26.423Z,29.86
2023-04-15T11:28:26.448Z,30.36
2023-04-15T11:29:26.525Z,31.08
2023-04-15T11:30:26.507Z,30.66
2023-04-15T11:31:26.596Z,31.59
2023-04-15T11:32:26.560Z,30.83
2023-04-15T11:33:26.540Z,30.65
2023-04-15T11:34:26.620Z,31.30
2023-04-15T11:35:26.667Z,30.99
2023-04-15T11:36:27.055Z,31.93
2023-04-15T11:37:26.715Z,32.17
2023-04-15T11:38:26.727Z,32.30
2023-04-15T11:39:26.774Z,32.22
2023-04-15T11:40:26.811Z,32.24
2023-04-15T11:41:26.812Z,32.11
2023-04-15T11:42:31.450Z,32.81
2023-04-15T11:43:27.852Z,32.69
2023-04-15T11:44:26.911Z,32.61
2023-04-15T11:45:26.878Z,32.82
2023-04-15T11:46:26.794Z,32.94
2023-04-15T11:47:26.827Z,32.36
2023-04-15T11:48:26.794Z,32.07
2023-04-15T11:49:26.802Z,32.17
2023-04-15T11:50:26.773Z,31.88
2023-04-15T11:51:26.864Z,32.25
2023-04-15T11:52:26.786Z,33.25
2023-04-15T11:53:26.760Z,33.14
2023-04-15T11:54:26.779Z,32.96
2023-04-15T11:55:26.768Z,33.26
2023-04-15T11:56:26.799Z,34.29
2023-04-15T11:57:26.726Z,34.38
2023-04-15T11:58:26.769Z,33.78
2023-04-15T11:59:38.999Z,33.59
2023-04-15T12:00:27.818Z,33.21
2023-04-15T12:01:26.799Z,33.82
2023-04-15T12:02:26.890Z,33.32
2023-04-15T12:03:26.875Z,33.80
2023-04-15T12:04:26.955Z,33.46
2023-04-15T12:05:26.803Z,33.42
2023-04-15T12:06:26.793Z,33.79
2023-04-15T12:07:26.759Z,33.80
2023-04-15T12:08:26.798Z,33.21
2023-04-15T12:09:26.731Z,33.40
2023-04-15T12:10:26.745Z,33.39
2023-04-15T12:11:26.724Z,33.12
2023-04-15T12:12:26.790Z,32.61
2023-04-15T12:13:26.753Z,32.59
2023-04-15T12:14:26.882Z,32.12
2023-04-15T12:15:26.900Z,31.84
2023-04-15T12:16:26.910Z,31.59
2023-04-15T12:17:27.085Z,30.97
2023-04-15T12:18:26.996Z,31.38
2023-04-15T12:19:27.081Z,31.16
2023-04-15T12:20:27.082Z,31.23
2023-04-15T12:21:27.157Z,31.52
2023-04-15T12:22:27.134Z,31.59
2023-04-15T12:23:27.182Z,31.69
2023-04-15T12:24:27.223Z,31.36
2023-04-15T12:25:27.237Z,31.45
2023-04-15T12:26:27.275Z,31.29
2023-04-15T12:27:29.632Z,31.65
2023-04-15T12:28:27.509Z,31.67
2023-04-15T12:29:27.425Z,31.46
2023-04-15T12:30:27.511Z,30.85
2023-04-15T12:31:27.585Z,31.34
2023-04-15T12:32:27.576Z,31.70
2023-04-15T12:33:27.607Z,31.86
2023-04-15T12:34:27.625Z,31.67
2023-04-15T12:35:27.581Z,31.15
2023-04-15T12:36:27.600Z,31.96
2023-04-15T12:37:28.064Z,32.29
2023-04-15T12:38:27.665Z,32.69
2023-04-15T12:39:29.261Z,32.24
2023-04-15T12:40:27.697Z,32.38
2023-04-15T12:41:27.705Z,32.30
2023-04-15T12:42:27.733Z,31.91
2023-04-15T12:43:27.756Z,31.77
2023-04-15T12:44:27.715Z,32.06
2023-04-15T12:45:29.490Z,31.82
2023-04-15T12:46:27.694Z,31.67
2023-04-15T12:47:27.761Z,31.51
2023-04-15T12:48:27.754Z,31.40
2023-04-15T12:49:27.720Z,32.19
2023-04-15T12:50:27.806Z,31.82
2023-04-15T12:51:28.127Z,32.19
2023-04-15T12:52:27.842Z,32.33